sensor_id;sensor_type;location;lat;lon;timestamp;pressure;altitude;pressure_sealevel;temperature;humidity
5996;BME280;3026;53.612;7.278;2024-01-06T00:01:29;100341.22;;;0.78;100.00
5996;BME280;3026;53.612;7.278;2024-01-06T00:03:56;100355.63;;;0.77;100.00
5996;BME280;3026;53.612;7.278;2024-01-06T00:06:24;100355.63;;;0.77;100.00
5996;BME280;3026;53.612;7.278;2024-01-06T00:08:51;100362.09;;;0.74;100.00
5996;BME280;3026;53.612;7.278;2024-01-06T00:11:22;100365.75;;;0.73;100.00
5996;BME280;3026;53.612;7.278;2024-01-06T00:13:52;100366.63;;;0.74;100.00
5996;BME280;3026;53.612;7.278;2024-01-06T00:16:20;100366.63;;;0.74;100.00
5996;BME280;3026;53.612;7.278;2024-01-06T00:18:47;100371.25;;;0.72;100.00
5996;BME280;3026;53.612;7.278;2024-01-06T00:21:16;100373.94;;;0.72;100.00
5996;BME280;3026;53.612;7.278;2024-01-06T00:23:44;100368.56;;;0.72;100.00
5996;BME280;3026;53.612;7.278;2024-01-06T00:26:11;100364.91;;;0.73;100.00
5996;BME280;3026;53.612;7.278;2024-01-06T00:28:39;100364.06;;;0.72;100.00
5996;BME280;3026;53.612;7.278;2024-01-06T00:31:08;100375.66;;;0.73;100.00
5996;BME280;3026;53.612;7.278;2024-01-06T00:33:35;100377.34;;;0.74;100.00
5996;BME280;3026;53.612;7.278;2024-01-06T00:36:03;100381.00;;;0.73;100.00
5996;BME280;3026;53.612;7.278;2024-01-06T00:38:35;100385.28;;;0.75;100.00
5996;BME280;3026;53.612;7.278;2024-01-06T00:41:02;100393.44;;;0.74;100.00
5996;BME280;3026;53.612;7.278;2024-01-06T00:43:30;100390.78;;;0.74;100.00
5996;BME280;3026;53.612;7.278;2024-01-06T00:46:00;100391.50;;;0.76;100.00
5996;BME280;3026;53.612;7.278;2024-01-06T00:48:30;100396.88;;;0.76;100.00
5996;BME280;3026;53.612;7.278;2024-01-06T00:50:57;100394.19;;;0.76;100.00
5996;BME280;3026;53.612;7.278;2024-01-06T00:53:30;100400.28;;;0.78;100.00
5996;BME280;3026;53.612;7.278;2024-01-06T00:55:58;100413.56;;;0.79;100.00
5996;BME280;3026;53.612;7.278;2024-01-06T00:58:25;100427.84;;;0.80;100.00
5996;BME280;3026;53.612;7.278;2024-01-06T01:00:53;100422.47;;;0.80;100.00
5996;BME280;3026;53.612;7.278;2024-01-06T01:03:22;100428.81;;;0.79;100.00
5996;BME280;3026;53.612;7.278;2024-01-06T01:05:51;100431.50;;;0.79;100.00
5996;BME280;3026;53.612;7.278;2024-01-06T01:08:24;100446.53;;;0.81;100.00
5996;BME280;3026;53.612;7.278;2024-01-06T01:10:51;100433.97;;;0.82;100.00
5996;BME280;3026;53.612;7.278;2024-01-06T01:13:19;100450.94;;;0.82;100.00
5996;BME280;3026;53.612;7.278;2024-01-06T01:15:46;100447.38;;;0.82;100.00
5996;BME280;3026;53.612;7.278;2024-01-06T01:18:15;100449.09;;;0.83;100.00
5996;BME280;3026;53.612;7.278;2024-01-06T01:20:44;100446.41;;;0.83;100.00
5996;BME280;3026;53.612;7.278;2024-01-06T01:23:14;100448.13;;;0.84;100.00
5996;BME280;3026;53.612;7.278;2024-01-06T01:25:41;100460.56;;;0.85;100.00
5996;BME280;3026;53.612;7.278;2024-01-06T01:28:11;100466.78;;;0.85;100.00
5996;BME280;3026;53.612;7.278;2024-01-06T01:30:41;100460.56;;;0.85;100.00
5996;BME280;3026;53.612;7.278;2024-01-06T01:33:10;100473.25;;;0.83;100.00
5996;BME280;3026;53.612;7.278;2024-01-06T01:35:42;100469.59;;;0.84;100.00
5996;BME280;3026;53.612;7.278;2024-01-06T01:38:10;100480.31;;;0.84;100.00
5996;BME280;3026;53.612;7.278;2024-01-06T01:40:39;100475.94;;;0.83;100.00
5996;BME280;3026;53.612;7.278;2024-01-06T01:43:16;100482.28;;;0.82;100.00
5996;BME280;3026;53.612;7.278;2024-01-06T01:45:44;100484.97;;;0.82;100.00
5996;BME280;3026;53.612;7.278;2024-01-06T01:48:15;100480.31;;;0.84;100.00
5996;BME280;3026;53.612;7.278;2024-01-06T01:50:42;100480.31;;;0.84;100.00
5996;BME280;3026;53.612;7.278;2024-01-06T01:53:12;100490.22;;;0.83;100.00
5996;BME280;3026;53.612;7.278;2024-01-06T01:55:42;100496.44;;;0.84;100.00
5996;BME280;3026;53.612;7.278;2024-01-06T01:58:12;100485.69;;;0.84;100.00
5996;BME280;3026;53.612;7.278;2024-01-06T02:00:40;100486.44;;;0.86;100.00
5996;BME280;3026;53.612;7.278;2024-01-06T02:03:11;100482.03;;;0.85;100.00
5996;BME280;3026;53.612;7.278;2024-01-06T02:05:39;100492.78;;;0.85;100.00
5996;BME280;3026;53.612;7.278;2024-01-06T02:08:06;100495.34;;;0.86;100.00
5996;BME280;3026;53.612;7.278;2024-01-06T02:10:34;100482.88;;;0.85;100.00
5996;BME280;3026;53.612;7.278;2024-01-06T02:13:09;100496.19;;;0.87;100.00
5996;BME280;3026;53.612;7.278;2024-01-06T02:15:37;100497.91;;;0.88;100.00
5996;BME280;3026;53.612;7.278;2024-01-06T02:18:06;100503.25;;;0.88;100.00
5996;BME280;3026;53.612;7.278;2024-01-06T02:20:35;100505.22;;;0.86;100.00
5996;BME280;3026;53.612;7.278;2024-01-06T02:23:04;100503.25;;;0.88;100.00
5996;BME280;3026;53.612;7.278;2024-01-06T02:25:34;100514.97;;;0.87;100.00
5996;BME280;3026;53.612;7.278;2024-01-06T02:28:01;100514.97;;;0.87;100.00
5996;BME280;3026;53.612;7.278;2024-01-06T02:30:34;100515.69;;;0.89;100.00
5996;BME280;3026;53.612;7.278;2024-01-06T02:33:04;100512.28;;;0.87;100.00
5996;BME280;3026;53.612;7.278;2024-01-06T02:35:31;100518.50;;;0.87;100.00
5996;BME280;3026;53.612;7.278;2024-01-06T02:37:58;100517.66;;;0.87;100.00
5996;BME280;3026;53.612;7.278;2024-01-06T02:40:27;100512.28;;;0.87;100.00
5996;BME280;3026;53.612;7.278;2024-01-06T02:42:56;100523.03;;;0.87;100.00
5996;BME280;3026;53.612;7.278;2024-01-06T02:45:23;100527.41;;;0.88;100.00
5996;BME280;3026;53.612;7.278;2024-01-06T02:47:50;100535.47;;;0.88;100.00
5996;BME280;3026;53.612;7.278;2024-01-06T02:50:19;100531.06;;;0.87;100.00
5996;BME280;3026;53.612;7.278;2024-01-06T02:52:47;100539.13;;;0.87;100.00
5996;BME280;3026;53.612;7.278;2024-01-06T02:55:14;100549.88;;;0.87;100.00
5996;BME280;3026;53.612;7.278;2024-01-06T02:57:45;100548.16;;;0.86;100.00
5996;BME280;3026;53.612;7.278;2024-01-06T03:00:12;100561.59;;;0.86;100.00
5996;BME280;3026;53.612;7.278;2024-01-06T03:02:40;100565.13;;;0.86;100.00
5996;BME280;3026;53.612;7.278;2024-01-06T03:05:08;100571.34;;;0.87;100.00
5996;BME280;3026;53.612;7.278;2024-01-06T03:07:35;100569.38;;;0.89;100.00
5996;BME280;3026;53.612;7.278;2024-01-06T03:10:05;100567.56;;;0.90;100.00
5996;BME280;3026;53.612;7.278;2024-01-06T03:12:35;100569.38;;;0.89;100.00
5996;BME280;3026;53.612;7.278;2024-01-06T03:15:06;100567.69;;;0.88;100.00
5996;BME280;3026;53.612;7.278;2024-01-06T03:17:35;100572.19;;;0.87;100.00
5996;BME280;3026;53.612;7.278;2024-01-06T03:20:02;100580.13;;;0.89;100.00
5996;BME280;3026;53.612;7.278;2024-01-06T03:22:30;100582.81;;;0.89;100.00
5996;BME280;3026;53.612;7.278;2024-01-06T03:24:57;100576.47;;;0.90;100.00
5996;BME280;3026;53.612;7.278;2024-01-06T03:27:25;100583.53;;;0.91;100.00
5996;BME280;3026;53.612;7.278;2024-01-06T03:29:52;100592.56;;;0.90;100.00
5996;BME280;3026;53.612;7.278;2024-01-06T03:32:21;100588.91;;;0.91;100.00
5996;BME280;3026;53.612;7.278;2024-01-06T03:34:49;100596.00;;;0.92;100.00
5996;BME280;3026;53.612;7.278;2024-01-06T03:37:17;100599.44;;;0.94;100.00
5996;BME280;3026;53.612;7.278;2024-01-06T03:39:45;100599.44;;;0.94;100.00
5996;BME280;3026;53.612;7.278;2024-01-06T03:42:13;100611.88;;;0.95;100.00
5996;BME280;3026;53.612;7.278;2024-01-06T03:44:40;100612.75;;;0.96;100.00
5996;BME280;3026;53.612;7.278;2024-01-06T03:47:08;100612.75;;;0.96;100.00
5996;BME280;3026;53.612;7.278;2024-01-06T03:49:37;100611.88;;;0.95;100.00
5996;BME280;3026;53.612;7.278;2024-01-06T03:52:06;100608.22;;;0.96;100.00
5996;BME280;3026;53.612;7.278;2024-01-06T03:54:33;100612.75;;;0.96;100.00
5996;BME280;3026;53.612;7.278;2024-01-06T03:57:00;100611.88;;;0.95;100.00
5996;BME280;3026;53.612;7.278;2024-01-06T03:59:27;100607.38;;;0.96;100.00
5996;BME280;3026;53.612;7.278;2024-01-06T04:01:55;100609.94;;;0.97;100.00
5996;BME280;3026;53.612;7.278;2024-01-06T04:04:23;100618.00;;;0.97;100.00
5996;BME280;3026;53.612;7.278;2024-01-06T04:06:53;100612.63;;;0.97;100.00
5996;BME280;3026;53.612;7.278;2024-01-06T04:09:20;100609.09;;;0.97;100.00
5996;BME280;3026;53.612;7.278;2024-01-06T04:11:48;100617.88;;;0.99;100.00
5996;BME280;3026;53.612;7.278;2024-01-06T04:14:15;100624.84;;;1.01;100.00
5996;BME280;3026;53.612;7.278;2024-01-06T04:16:42;100623.84;;;1.02;100.00
5996;BME280;3026;53.612;7.278;2024-01-06T04:19:10;100620.19;;;1.03;100.00
5996;BME280;3026;53.612;7.278;2024-01-06T04:21:38;100621.94;;;1.04;100.00
5996;BME280;3026;53.612;7.278;2024-01-06T04:24:07;100629.00;;;1.05;100.00
5996;BME280;3026;53.612;7.278;2024-01-06T04:26:36;100619.97;;;1.06;100.00
5996;BME280;3026;53.612;7.278;2024-01-06T04:29:03;100632.56;;;1.06;100.00
5996;BME280;3026;53.612;7.278;2024-01-06T04:31:30;100625.34;;;1.06;100.00
5996;BME280;3026;53.612;7.278;2024-01-06T04:33:58;100627.06;;;1.07;100.00
5996;BME280;3026;53.612;7.278;2024-01-06T04:36:25;100627.78;;;1.09;100.00
5996;BME280;3026;53.612;7.278;2024-01-06T04:38:52;100630.47;;;1.09;100.00
5996;BME280;3026;53.612;7.278;2024-01-06T04:41:22;100635.84;;;1.09;100.00
5996;BME280;3026;53.612;7.278;2024-01-06T04:43:49;100638.28;;;1.12;100.00
5996;BME280;3026;53.612;7.278;2024-01-06T04:46:16;100637.31;;;1.13;100.00
5996;BME280;3026;53.612;7.278;2024-01-06T04:48:44;100649.78;;;1.14;100.00
5996;BME280;3026;53.612;7.278;2024-01-06T04:51:11;100649.78;;;1.14;100.00
5996;BME280;3026;53.612;7.278;2024-01-06T04:53:39;100664.69;;;1.19;100.00
5996;BME280;3026;53.612;7.278;2024-01-06T04:56:06;100662.00;;;1.19;100.00
5996;BME280;3026;53.612;7.278;2024-01-06T04:58:36;100671.53;;;1.23;100.00
5996;BME280;3026;53.612;7.278;2024-01-06T05:01:03;100665.19;;;1.24;100.00
5996;BME280;3026;53.612;7.278;2024-01-06T05:03:30;100671.28;;;1.26;100.00
5996;BME280;3026;53.612;7.278;2024-01-06T05:05:57;100673.84;;;1.27;100.00
5996;BME280;3026;53.612;7.278;2024-01-06T05:08:24;100682.81;;;1.28;100.00
5996;BME280;3026;53.612;7.278;2024-01-06T05:10:53;100672.78;;;1.30;100.00
5996;BME280;3026;53.612;7.278;2024-01-06T05:13:22;100679.88;;;1.31;100.00
5996;BME280;3026;53.612;7.278;2024-01-06T05:15:51;100681.59;;;1.32;100.00
5996;BME280;3026;53.612;7.278;2024-01-06T05:18:18;100681.59;;;1.32;100.00
5996;BME280;3026;53.612;7.278;2024-01-06T05:20:45;100691.34;;;1.33;100.00
5996;BME280;3026;53.612;7.278;2024-01-06T05:23:12;100688.53;;;1.34;100.00
5996;BME280;3026;53.612;7.278;2024-01-06T05:25:45;100694.78;;;1.35;100.00
5996;BME280;3026;53.612;7.278;2024-01-06T05:28:12;100703.81;;;1.34;100.00
5996;BME280;3026;53.612;7.278;2024-01-06T05:30:39;100703.81;;;1.34;100.00
5996;BME280;3026;53.612;7.278;2024-01-06T05:33:11;100697.69;;;1.32;100.00
5996;BME280;3026;53.612;7.278;2024-01-06T05:35:40;100698.44;;;1.34;100.00
5996;BME280;3026;53.612;7.278;2024-01-06T05:38:09;100709.19;;;1.34;100.00
5996;BME280;3026;53.612;7.278;2024-01-06T05:40:37;100702.09;;;1.33;100.00
5996;BME280;3026;53.612;7.278;2024-01-06T05:43:04;100710.03;;;1.34;100.00
5996;BME280;3026;53.612;7.278;2024-01-06T05:45:31;100712.72;;;1.34;100.00
5996;BME280;3026;53.612;7.278;2024-01-06T05:47:59;100718.22;;;1.33;100.00
5996;BME280;3026;53.612;7.278;2024-01-06T05:50:27;100731.53;;;1.34;100.00
5996;BME280;3026;53.612;7.278;2024-01-06T05:52:55;100732.38;;;1.35;100.00
5996;BME280;3026;53.612;7.278;2024-01-06T05:55:23;100737.75;;;1.35;100.00
5996;BME280;3026;53.612;7.278;2024-01-06T05:57:56;100732.38;;;1.35;100.00
5996;BME280;3026;53.612;7.278;2024-01-06T06:00:23;100732.63;;;1.32;100.00
5996;BME280;3026;53.612;7.278;2024-01-06T06:02:51;100738.59;;;1.35;100.00
5996;BME280;3026;53.612;7.278;2024-01-06T06:05:18;100732.38;;;1.35;100.00
5996;BME280;3026;53.612;7.278;2024-01-06T06:07:48;100742.16;;;1.36;100.00
5996;BME280;3026;53.612;7.278;2024-01-06T06:10:15;100750.09;;;1.37;100.00
5996;BME280;3026;53.612;7.278;2024-01-06T06:12:44;100755.59;;;1.36;100.00
5996;BME280;3026;53.612;7.278;2024-01-06T06:15:11;100759.97;;;1.37;100.00
5996;BME280;3026;53.612;7.278;2024-01-06T06:17:39;100762.66;;;1.37;100.00
5996;BME280;3026;53.612;7.278;2024-01-06T06:20:07;100757.28;;;1.37;100.00
5996;BME280;3026;53.612;7.278;2024-01-06T06:22:34;100762.66;;;1.37;100.00
5996;BME280;3026;53.612;7.278;2024-01-06T06:25:04;100770.72;;;1.37;100.00
5996;BME280;3026;53.612;7.278;2024-01-06T06:27:31;100784.16;;;1.37;100.00
5996;BME280;3026;53.612;7.278;2024-01-06T06:29:58;100780.50;;;1.38;100.00
5996;BME280;3026;53.612;7.278;2024-01-06T06:32:25;100787.69;;;1.37;100.00
5996;BME280;3026;53.612;7.278;2024-01-06T06:34:52;100807.38;;;1.38;100.00
5996;BME280;3026;53.612;7.278;2024-01-06T06:37:20;100799.31;;;1.38;100.00
5996;BME280;3026;53.612;7.278;2024-01-06T06:39:47;100807.38;;;1.38;100.00
5996;BME280;3026;53.612;7.278;2024-01-06T06:42:17;100812.75;;;1.38;100.00
5996;BME280;3026;53.612;7.278;2024-01-06T06:44:44;100816.19;;;1.40;100.00
5996;BME280;3026;53.612;7.278;2024-01-06T06:47:12;100814.25;;;1.42;100.00
5996;BME280;3026;53.612;7.278;2024-01-06T06:49:39;100830.25;;;1.43;100.00
5996;BME280;3026;53.612;7.278;2024-01-06T06:52:07;100834.75;;;1.43;100.00
5996;BME280;3026;53.612;7.278;2024-01-06T06:54:35;100835.50;;;1.45;100.00
5996;BME280;3026;53.612;7.278;2024-01-06T06:57:03;100842.59;;;1.46;100.00
5996;BME280;3026;53.612;7.278;2024-01-06T06:59:32;100852.38;;;1.47;100.00
5996;BME280;3026;53.612;7.278;2024-01-06T07:02:00;100853.34;;;1.46;100.00
5996;BME280;3026;53.612;7.278;2024-01-06T07:04:28;100869.47;;;1.46;100.00
5996;BME280;3026;53.612;7.278;2024-01-06T07:06:55;100875.69;;;1.46;100.00
5996;BME280;3026;53.612;7.278;2024-01-06T07:09:23;100871.16;;;1.47;100.00
5996;BME280;3026;53.612;7.278;2024-01-06T07:11:51;100877.41;;;1.48;100.00
5996;BME280;3026;53.612;7.278;2024-01-06T07:14:18;100871.91;;;1.49;100.00
5996;BME280;3026;53.612;7.278;2024-01-06T07:17:00;100885.34;;;1.49;100.00
5996;BME280;3026;53.612;7.278;2024-01-06T07:19:27;100880.94;;;1.48;100.00
5996;BME280;3026;53.612;7.278;2024-01-06T07:22:01;100887.28;;;1.47;100.00
5996;BME280;3026;53.612;7.278;2024-01-06T07:24:28;100894.38;;;1.48;100.00
5996;BME280;3026;53.612;7.278;2024-01-06T07:26:56;100896.94;;;1.50;100.00
5996;BME280;3026;53.612;7.278;2024-01-06T07:29:23;100897.81;;;1.50;100.00
5996;BME280;3026;53.612;7.278;2024-01-06T07:31:55;100903.94;;;1.52;100.00
5996;BME280;3026;53.612;7.278;2024-01-06T07:34:24;100906.66;;;1.52;100.00
5996;BME280;3026;53.612;7.278;2024-01-06T07:36:51;100920.06;;;1.52;100.00
5996;BME280;3026;53.612;7.278;2024-01-06T07:39:18;100914.69;;;1.52;100.00
5996;BME280;3026;53.612;7.278;2024-01-06T07:41:46;100914.81;;;1.51;100.00
5996;BME280;3026;53.612;7.278;2024-01-06T07:44:13;100928.13;;;1.52;100.00
5996;BME280;3026;53.612;7.278;2024-01-06T07:46:41;100931.81;;;1.51;100.00
5996;BME280;3026;53.612;7.278;2024-01-06T07:49:09;100931.81;;;1.51;100.00
5996;BME280;3026;53.612;7.278;2024-01-06T07:51:39;100938.88;;;1.52;100.00
5996;BME280;3026;53.612;7.278;2024-01-06T07:54:07;100944.25;;;1.52;100.00
5996;BME280;3026;53.612;7.278;2024-01-06T07:56:35;100943.41;;;1.52;100.00
5996;BME280;3026;53.612;7.278;2024-01-06T07:59:03;100951.34;;;1.53;100.00
5996;BME280;3026;53.612;7.278;2024-01-06T08:01:30;100958.44;;;1.54;100.00
5996;BME280;3026;53.612;7.278;2024-01-06T08:03:58;100961.13;;;1.54;100.00
5996;BME280;3026;53.612;7.278;2024-01-06T08:06:26;100969.19;;;1.54;100.00
5996;BME280;3026;53.612;7.278;2024-01-06T08:08:54;100974.56;;;1.54;100.00
5996;BME280;3026;53.612;7.278;2024-01-06T08:11:23;100967.47;;;1.53;100.00
5996;BME280;3026;53.612;7.278;2024-01-06T08:13:50;100978.22;;;1.53;100.00
5996;BME280;3026;53.612;7.278;2024-01-06T08:16:18;100975.53;;;1.53;100.00
5996;BME280;3026;53.612;7.278;2024-01-06T08:18:45;100983.59;;;1.53;100.00
5996;BME280;3026;53.612;7.278;2024-01-06T08:21:13;100981.88;;;1.52;100.00
5996;BME280;3026;53.612;7.278;2024-01-06T08:23:41;100995.22;;;1.54;100.00
5996;BME280;3026;53.612;7.278;2024-01-06T08:26:12;100993.38;;;1.54;100.00
5996;BME280;3026;53.612;7.278;2024-01-06T08:28:40;101001.44;;;1.54;100.00
5996;BME280;3026;53.612;7.278;2024-01-06T08:31:09;100992.63;;;1.52;100.00
5996;BME280;3026;53.612;7.278;2024-01-06T08:33:36;101007.91;;;1.52;100.00
5996;BME280;3026;53.612;7.278;2024-01-06T08:36:04;101007.78;;;1.53;100.00
5996;BME280;3026;53.612;7.278;2024-01-06T08:38:32;101008.75;;;1.52;100.00
5996;BME280;3026;53.612;7.278;2024-01-06T08:41:00;101017.78;;;1.51;100.00
5996;BME280;3026;53.612;7.278;2024-01-06T08:43:29;101020.69;;;1.48;100.00
5996;BME280;3026;53.612;7.278;2024-01-06T08:45:56;101025.19;;;1.48;100.00
5996;BME280;3026;53.612;7.278;2024-01-06T08:48:24;101036.06;;;1.46;100.00
5996;BME280;3026;53.612;7.278;2024-01-06T08:50:51;101041.44;;;1.46;100.00
5996;BME280;3026;53.612;7.278;2024-01-06T08:53:18;101037.78;;;1.47;100.00
5996;BME280;3026;53.612;7.278;2024-01-06T08:55:46;101045.84;;;1.47;100.00
5996;BME280;3026;53.612;7.278;2024-01-06T08:58:12;101046.81;;;1.46;100.00
5996;BME280;3026;53.612;7.278;2024-01-06T09:00:43;101053.91;;;1.47;100.00
5996;BME280;3026;53.612;7.278;2024-01-06T09:03:10;101058.53;;;1.45;100.00
5996;BME280;3026;53.612;7.278;2024-01-06T09:05:38;101059.50;;;1.44;100.00
5996;BME280;3026;53.612;7.278;2024-01-06T09:08:06;101058.53;;;1.45;100.00
5996;BME280;3026;53.612;7.278;2024-01-06T09:10:33;101064.00;;;1.43;100.00
5996;BME280;3026;53.612;7.278;2024-01-06T09:13:01;101063.16;;;1.43;100.00
5996;BME280;3026;53.612;7.278;2024-01-06T09:15:29;101073.03;;;1.42;100.00
5996;BME280;3026;53.612;7.278;2024-01-06T09:17:57;101073.16;;;1.41;100.00
5996;BME280;3026;53.612;7.278;2024-01-06T09:20:24;101076.03;;;1.38;100.00
5996;BME280;3026;53.612;7.278;2024-01-06T09:22:53;101075.28;;;1.36;100.00
5996;BME280;3026;53.612;7.278;2024-01-06T09:25:20;101083.34;;;1.36;100.00
5996;BME280;3026;53.612;7.278;2024-01-06T09:27:50;101088.72;;;1.36;100.00
5996;BME280;3026;53.612;7.278;2024-01-06T09:30:18;101094.09;;;1.36;100.00
5996;BME280;3026;53.612;7.278;2024-01-06T09:32:52;101090.66;;;1.34;100.00
5996;BME280;3026;53.612;7.278;2024-01-06T09:35:20;101099.69;;;1.33;100.00
5996;BME280;3026;53.612;7.278;2024-01-06T09:37:47;101100.56;;;1.33;100.00
5996;BME280;3026;53.612;7.278;2024-01-06T09:40:21;101105.06;;;1.33;100.00
5996;BME280;3026;53.612;7.278;2024-01-06T09:42:48;101112.16;;;1.34;100.00
5996;BME280;3026;53.612;7.278;2024-01-06T09:45:16;101117.53;;;1.34;100.00
5996;BME280;3026;53.612;7.278;2024-01-06T09:47:48;101122.91;;;1.34;100.00
5996;BME280;3026;53.612;7.278;2024-01-06T09:50:17;101130.00;;;1.35;100.00
5996;BME280;3026;53.612;7.278;2024-01-06T09:52:47;101130.00;;;1.35;100.00
5996;BME280;3026;53.612;7.278;2024-01-06T09:55:24;101133.44;;;1.37;100.00
5996;BME280;3026;53.612;7.278;2024-01-06T09:57:54;101130.75;;;1.37;100.00
5996;BME280;3026;53.612;7.278;2024-01-06T10:00:21;101137.09;;;1.36;100.00
5996;BME280;3026;53.612;7.278;2024-01-06T10:02:49;101140.53;;;1.38;100.00
5996;BME280;3026;53.612;7.278;2024-01-06T10:05:17;101137.94;;;1.36;100.00
5996;BME280;3026;53.612;7.278;2024-01-06T10:07:47;101137.09;;;1.36;100.00
5996;BME280;3026;53.612;7.278;2024-01-06T10:10:15;101140.75;;;1.35;100.00
5996;BME280;3026;53.612;7.278;2024-01-06T10:12:43;101140.63;;;1.36;100.00
5996;BME280;3026;53.612;7.278;2024-01-06T10:15:13;101138.81;;;1.37;100.00
5996;BME280;3026;53.612;7.278;2024-01-06T10:17:42;101145.16;;;1.36;100.00
5996;BME280;3026;53.612;7.278;2024-01-06T10:20:10;101155.16;;;1.34;100.00
5996;BME280;3026;53.612;7.278;2024-01-06T10:22:38;101158.81;;;1.33;100.00
5996;BME280;3026;53.612;7.278;2024-01-06T10:25:10;101154.28;;;1.33;100.00
5996;BME280;3026;53.612;7.278;2024-01-06T10:27:39;101153.44;;;1.33;100.00
5996;BME280;3026;53.612;7.278;2024-01-06T10:30:07;101162.47;;;1.32;100.00
5996;BME280;3026;53.612;7.278;2024-01-06T10:32:35;101157.09;;;1.32;100.00
5996;BME280;3026;53.612;7.278;2024-01-06T10:35:03;101159.78;;;1.32;100.00
5996;BME280;3026;53.612;7.278;2024-01-06T10:37:32;101164.19;;;1.33;100.00
5996;BME280;3026;53.612;7.278;2024-01-06T10:40:09;101165.03;;;1.33;100.00
5996;BME280;3026;53.612;7.278;2024-01-06T10:42:38;101171.25;;;1.34;100.00
5996;BME280;3026;53.612;7.278;2024-01-06T10:45:07;101174.91;;;1.33;100.00
5996;BME280;3026;53.612;7.278;2024-01-06T10:47:36;101173.94;;;1.34;100.00
5996;BME280;3026;53.612;7.278;2024-01-06T10:50:04;101175.66;;;1.35;100.00
5996;BME280;3026;53.612;7.278;2024-01-06T10:52:32;101180.28;;;1.33;100.00
5996;BME280;3026;53.612;7.278;2024-01-06T10:55:00;101177.50;;;1.34;100.00
5996;BME280;3026;53.612;7.278;2024-01-06T10:57:30;101169.53;;;1.33;100.00
5996;BME280;3026;53.612;7.278;2024-01-06T10:59:59;101176.75;;;1.32;100.00
5996;BME280;3026;53.612;7.278;2024-01-06T11:02:31;101181.25;;;1.32;100.00
5996;BME280;3026;53.612;7.278;2024-01-06T11:04:58;101180.50;;;1.30;100.00
5996;BME280;3026;53.612;7.278;2024-01-06T11:07:26;101190.41;;;1.29;100.00
5996;BME280;3026;53.612;7.278;2024-01-06T11:09:56;101194.06;;;1.28;100.00
5996;BME280;3026;53.612;7.278;2024-01-06T11:12:24;101180.69;;;1.27;100.00
5996;BME280;3026;53.612;7.278;2024-01-06T11:14:56;101187.81;;;1.28;100.00
5996;BME280;3026;53.612;7.278;2024-01-06T11:17:53;101195.88;;;1.28;100.00
5996;BME280;3026;53.612;7.278;2024-01-06T11:20:21;101196.81;;;1.27;100.00
5996;BME280;3026;53.612;7.278;2024-01-06T11:22:49;101200.28;;;1.29;100.00
5996;BME280;3026;53.612;7.278;2024-01-06T11:25:18;101200.28;;;1.29;100.00
5996;BME280;3026;53.612;7.278;2024-01-06T11:27:46;101196.81;;;1.27;100.00
5996;BME280;3026;53.612;7.278;2024-01-06T11:30:27;101198.56;;;1.28;100.00
5996;BME280;3026;53.612;7.278;2024-01-06T11:32:56;101201.25;;;1.28;100.00
5996;BME280;3026;53.612;7.278;2024-01-06T11:35:27;101205.72;;;1.27;100.00
5996;BME280;3026;53.612;7.278;2024-01-06T11:37:55;101207.56;;;1.27;100.00
5996;BME280;3026;53.612;7.278;2024-01-06T11:40:32;101213.78;;;1.27;100.00
5996;BME280;3026;53.612;7.278;2024-01-06T11:43:02;101215.53;;;1.28;100.00
5996;BME280;3026;53.612;7.278;2024-01-06T11:45:33;101212.75;;;1.30;100.00
5996;BME280;3026;53.612;7.278;2024-01-06T11:48:01;101217.16;;;1.31;100.00
5996;BME280;3026;53.612;7.278;2024-01-06T11:50:33;101212.44;;;1.34;100.00
5996;BME280;3026;53.612;7.278;2024-01-06T11:53:02;101214.03;;;1.37;100.00
5996;BME280;3026;53.612;7.278;2024-01-06T11:55:29;101208.66;;;1.37;100.00
5996;BME280;3026;53.612;7.278;2024-01-06T11:57:57;101209.63;;;1.36;100.00
5996;BME280;3026;53.612;7.278;2024-01-06T12:00:31;101214.03;;;1.37;100.00
5996;BME280;3026;53.612;7.278;2024-01-06T12:03:00;101214.03;;;1.37;100.00
5996;BME280;3026;53.612;7.278;2024-01-06T12:05:28;101215.75;;;1.38;100.00
5996;BME280;3026;53.612;7.278;2024-01-06T12:07:56;101217.47;;;1.39;100.00
5996;BME280;3026;53.612;7.278;2024-01-06T12:10:25;101218.44;;;1.38;100.00
5996;BME280;3026;53.612;7.278;2024-01-06T12:12:59;101222.84;;;1.39;100.00
5996;BME280;3026;53.612;7.278;2024-01-06T12:15:27;101222.66;;;1.42;100.00
5996;BME280;3026;53.612;7.278;2024-01-06T12:17:56;101230.72;;;1.42;100.00
5996;BME280;3026;53.612;7.278;2024-01-06T12:20:24;101218.25;;;1.41;100.00
5996;BME280;3026;53.612;7.278;2024-01-06T12:22:52;101220.16;;;1.39;100.00
5996;BME280;3026;53.612;7.278;2024-01-06T12:25:20;101215.75;;;1.38;100.00
5996;BME280;3026;53.612;7.278;2024-01-06T12:27:49;101219.22;;;1.40;100.00
5996;BME280;3026;53.612;7.278;2024-01-06T12:30:18;101226.31;;;1.41;100.00
5996;BME280;3026;53.612;7.278;2024-01-06T12:32:47;101215.69;;;1.39;100.00
5996;BME280;3026;53.612;7.278;2024-01-06T12:35:16;101221.13;;;1.38;100.00
5996;BME280;3026;53.612;7.278;2024-01-06T12:37:44;101223.06;;;1.36;100.00
5996;BME280;3026;53.612;7.278;2024-01-06T12:40:13;101225.84;;;1.34;100.00
5996;BME280;3026;53.612;7.278;2024-01-06T12:42:43;101225.22;;;1.31;100.00
5996;BME280;3026;53.612;7.278;2024-01-06T12:45:10;101229.06;;;1.27;100.00
5996;BME280;3026;53.612;7.278;2024-01-06T12:47:38;101233.50;;;1.28;100.00
5996;BME280;3026;53.612;7.278;2024-01-06T12:50:07;101234.63;;;1.24;100.00
5996;BME280;3026;53.612;7.278;2024-01-06T12:52:36;101243.66;;;1.23;100.00
5996;BME280;3026;53.612;7.278;2024-01-06T12:55:05;101243.66;;;1.23;100.00
5996;BME280;3026;53.612;7.278;2024-01-06T12:57:32;101246.34;;;1.23;100.00
5996;BME280;3026;53.612;7.278;2024-01-06T13:00:00;101242.81;;;1.22;100.00
5996;BME280;3026;53.612;7.278;2024-01-06T13:02:30;101244.75;;;1.20;100.00
5996;BME280;3026;53.612;7.278;2024-01-06T13:04:57;101240.44;;;1.17;100.00
5996;BME280;3026;53.612;7.278;2024-01-06T13:07:24;101243.88;;;1.20;100.00
5996;BME280;3026;53.612;7.278;2024-01-06T13:09:53;101243.22;;;1.16;100.00
5996;BME280;3026;53.612;7.278;2024-01-06T13:12:22;101245.81;;;1.17;100.00
5996;BME280;3026;53.612;7.278;2024-01-06T13:14:50;101250.31;;;1.17;100.00
5996;BME280;3026;53.612;7.278;2024-01-06T13:17:17;101251.19;;;1.17;100.00